Time;durP1;ratioP1;P1;durP2;ratioP2;P2;SDS_P1;SDS_P2;PMS_P1;PMS_P2;Temp;Humidity;BMP_temperature;BMP_pressure;BME280_temperature;BME280_humidity;BME280_pressure;Samples;Min_cycle;Max_cycle;Signal;HPM_P1;HPM_P2
2022/08/21 00:00:50;;;;;;;3.83;1.98;;;;;;;17.73;73.37;101722.09;5036504;28;20045;-80
2022/08/21 00:03:16;;;;;;;3.22;1.23;;;;;;;17.72;73.21;101717.75;5034921;28;20105;-80
2022/08/21 00:05:46;;;;;;;2.75;1.30;;;;;;;17.72;73.21;101716.88;5034420;28;20648;-80
2022/08/21 00:08:12;;;;;;;3.83;1.20;;;;;;;17.71;73.37;101718.66;5035108;28;20252;-80
2022/08/21 00:10:40;;;;;;;4.53;1.55;;;;;;;17.71;73.20;101723.97;5018069;28;20104;-80
2022/08/21 00:13:06;;;;;;;1.85;1.17;;;;;;;17.70;73.22;101718.75;5033035;28;20037;-80
2022/08/21 00:15:33;;;;;;;1.42;1.10;;;;;;;17.70;73.40;101713.44;4997511;28;20221;-80
2022/08/21 00:17:58;;;;;;;1.42;0.80;;;;;;;17.69;72.97;101711.75;5018350;28;20026;-81
2022/08/21 00:20:24;;;;;;;1.83;1.13;;;;;;;17.68;73.21;101708.25;5014168;28;20044;-80
2022/08/21 00:22:50;;;;;;;2.83;1.40;;;;;;;17.68;73.29;101715.34;5034414;28;20299;-81
2022/08/21 00:25:16;;;;;;;2.55;1.23;;;;;;;17.69;73.39;101711.75;5034085;28;20060;-80
2022/08/21 00:27:42;;;;;;;3.05;1.27;;;;;;;17.68;73.71;101708.25;5034551;28;20048;-80
2022/08/21 00:30:10;;;;;;;1.52;0.90;;;;;;;17.66;73.41;101710.13;5034676;28;20067;-80
2022/08/21 00:32:38;;;;;;;3.40;1.50;;;;;;;17.65;73.41;101703.13;5016663;28;20044;-80
2022/08/21 00:35:07;;;;;;;3.55;1.13;;;;;;;17.64;73.55;101704.94;5016971;28;20035;-80
2022/08/21 00:37:33;;;;;;;1.48;0.90;;;;;;;17.64;73.40;101712.88;5040606;28;20037;-80
2022/08/21 00:39:58;;;;;;;1.90;1.10;;;;;;;17.63;73.51;101708.50;5009435;28;20112;-80
2022/08/21 00:42:24;;;;;;;3.70;1.23;;;;;;;17.62;73.50;101698.84;5023999;28;20108;-81
2022/08/21 00:44:50;;;;;;;2.08;1.30;;;;;;;17.62;73.32;101706.78;5026109;28;20040;-81
2022/08/21 00:47:17;;;;;;;1.25;1.00;;;;;;;17.62;73.46;101700.66;5025777;28;20223;-80
2022/08/21 00:49:43;;;;;;;1.60;1.15;;;;;;;17.62;73.40;101695.34;5024924;28;20045;-80
2022/08/21 00:52:20;;;;;;;0.98;0.90;;;;;;;17.61;73.26;101702.47;5024011;28;20208;-80
2022/08/21 00:54:47;;;;;;;1.27;1.00;;;;;;;17.60;73.29;101708.69;5025320;28;20213;-80
2022/08/21 00:57:20;;;;;;;2.15;0.98;;;;;;;17.58;72.71;101697.31;5041669;28;20029;-80
2022/08/21 00:59:49;;;;;;;2.35;1.17;;;;;;;17.59;72.74;101695.53;5039875;28;20292;-80
2022/08/21 01:02:34;;;;;;;1.20;0.80;;;;;;;17.59;73.22;101700.81;5034467;28;20029;-80
2022/08/21 01:05:00;;;;;;;1.55;1.33;;;;;;;17.59;73.44;101703.47;5009571;28;20033;-80
2022/08/21 01:07:25;;;;;;;4.85;1.20;;;;;;;17.58;73.71;101696.47;5020974;28;20039;-80
2022/08/21 01:09:51;;;;;;;2.33;1.33;;;;;;;17.56;73.86;101699.22;5038674;28;20201;-80
2022/08/21 01:12:17;;;;;;;1.67;1.30;;;;;;;17.56;74.24;101698.38;5021268;28;20236;-80
2022/08/21 01:14:44;;;;;;;6.43;1.33;;;;;;;17.56;74.23;101701.00;5040372;28;20068;-80
2022/08/21 01:17:13;;;;;;;2.65;1.20;;;;;;;17.55;74.36;101694.00;5019357;28;20029;-80
2022/08/21 01:19:39;;;;;;;2.22;1.55;;;;;;;17.53;74.09;101690.59;5005540;28;20336;-80
2022/08/21 01:22:05;;;;;;;2.63;1.55;;;;;;;17.53;74.33;101690.59;5027635;28;20076;-80
2022/08/21 01:24:32;;;;;;;2.40;1.50;;;;;;;17.52;74.50;101696.81;5030066;28;20136;-80
2022/08/21 01:26:59;;;;;;;2.10;1.30;;;;;;;17.52;74.64;101699.44;5012373;28;20041;-80
2022/08/21 01:29:41;;;;;;;3.60;1.80;;;;;;;17.50;74.88;101690.75;5032981;28;20049;-80
2022/08/21 01:32:14;;;;;;;5.82;1.92;;;;;;;17.49;74.83;101694.34;5014037;28;20052;-80
2022/08/21 01:34:45;;;;;;;3.08;1.73;;;;;;;17.48;74.79;101689.97;5034221;28;20037;-80
2022/08/21 01:37:11;;;;;;;3.65;1.55;;;;;;;17.48;74.79;101684.69;5014977;28;20205;-80
2022/08/21 01:39:37;;;;;;;2.22;1.55;;;;;;;17.45;75.15;101689.22;5033967;28;20067;-80
2022/08/21 01:42:04;;;;;;;3.00;1.85;;;;;;;17.45;75.09;101688.38;5034432;28;20045;-80
2022/08/21 01:44:29;;;;;;;5.65;1.92;;;;;;;17.44;75.02;101678.72;5032135;28;20071;-81
2022/08/21 01:46:57;;;;;;;4.03;1.70;;;;;;;17.43;75.43;101687.59;5034144;28;20228;-81
2022/08/21 01:49:23;;;;;;;2.72;2.00;;;;;;;17.42;75.62;101678.78;5034053;28;20033;-81
2022/08/21 01:51:48;;;;;;;4.90;2.10;;;;;;;17.42;75.41;101688.53;5033220;28;20056;-81
2022/08/21 01:54:14;;;;;;;4.40;2.03;;;;;;;17.40;75.68;101678.03;4999857;28;20033;-81
2022/08/21 01:56:43;;;;;;;4.57;2.00;;;;;;;17.38;75.77;101674.63;5015830;28;20056;-81
2022/08/21 01:59:09;;;;;;;3.83;1.90;;;;;;;17.38;75.94;101677.25;5034174;28;20037;-81
2022/08/21 02:01:35;;;;;;;5.88;1.80;;;;;;;17.35;75.73;101672.13;5033880;28;20051;-81
2022/08/21 02:04:00;;;;;;;5.72;2.10;;;;;;;17.35;76.01;101672.13;5033184;28;20399;-81
2022/08/21 02:06:27;;;;;;;3.55;2.05;;;;;;;17.34;75.97;101673.09;5016124;28;20558;-81
2022/08/21 02:08:53;;;;;;;3.30;1.80;;;;;;;17.33;76.14;101663.41;5034197;28;20217;-81
2022/08/21 02:11:19;;;;;;;4.68;1.70;;;;;;;17.31;76.06;101665.31;5032963;28;20032;-81
2022/08/21 02:13:44;;;;;;;2.60;1.77;;;;;;;17.31;76.22;101664.47;5015910;28;20033;-81
2022/08/21 02:16:11;;;;;;;2.90;1.65;;;;;;;17.31;76.20;101661.81;5016479;28;20347;-81
2022/08/21 02:18:36;;;;;;;5.93;1.55;;;;;;;17.29;76.27;101661.06;5033238;28;20037;-81
2022/08/21 02:21:03;;;;;;;2.85;1.42;;;;;;;17.29;76.39;101658.41;4994788;28;20064;-81
2022/08/21 02:23:29;;;;;;;2.35;1.40;;;;;;;17.26;76.48;101657.63;5015568;28;20053;-81
2022/08/21 02:25:57;;;;;;;2.55;1.50;;;;;;;17.26;76.19;101657.63;5027020;28;20038;-81
2022/08/21 02:28:23;;;;;;;3.50;1.65;;;;;;;17.27;76.08;101661.13;5033258;28;20039;-81
2022/08/21 02:30:49;;;;;;;3.83;1.30;;;;;;;17.25;76.07;101653.28;5032504;28;20330;-81
2022/08/21 02:33:15;;;;;;;1.95;1.30;;;;;;;17.24;76.22;101659.50;5033784;28;20032;-81
2022/08/21 02:35:42;;;;;;;3.90;1.38;;;;;;;17.24;76.36;101663.94;5025562;28;20045;-80
2022/08/21 02:38:11;;;;;;;1.88;1.25;;;;;;;17.23;76.14;101663.09;5033663;28;20041;-80
2022/08/21 02:40:39;;;;;;;4.28;1.27;;;;;;;17.23;76.10;101660.44;5033507;28;20034;-80
2022/08/21 02:43:05;;;;;;;2.35;1.08;;;;;;;17.21;75.73;101651.75;5033804;28;20110;-80
2022/08/21 02:45:32;;;;;;;1.45;1.10;;;;;;;17.22;75.87;101660.53;5033238;28;20048;-80
2022/08/21 02:48:01;;;;;;;2.22;1.55;;;;;;;17.21;75.72;101654.38;5032493;28;20088;-80
2022/08/21 02:50:28;;;;;;;;;;;;;;;17.20;75.73;101647.38;5034004;28;20029;-81
2022/08/21 02:52:54;;;;;;;1.55;0.85;;;;;;;17.20;75.65;101651.81;5016094;28;19923;-80
2022/08/21 02:55:21;;;;;;;1.85;1.08;;;;;;;17.19;75.17;101655.41;5033635;28;20408;-80
2022/08/21 02:57:47;;;;;;;2.10;1.00;;;;;;;17.18;75.40;101651.06;5033034;28;20363;-80
2022/08/21 03:00:13;;;;;;;13.15;2.13;;;;;;;17.17;75.23;101655.50;5032996;28;20205;-80
2022/08/21 03:02:39;;;;;;;5.63;1.60;;;;;;;17.17;75.35;101649.34;5032981;28;20123;-80
2022/08/21 03:05:07;;;;;;;2.70;1.10;;;;;;;17.16;75.67;101650.28;5033376;28;20312;-80
2022/08/21 03:07:33;;;;;;;6.72;1.50;;;;;;;17.17;75.42;101646.69;5034323;28;20205;-80
2022/08/21 03:09:59;;;;;;;3.70;1.48;;;;;;;17.17;75.75;101649.34;5037348;28;20040;-80
2022/08/21 03:12:24;;;;;;;1.73;0.90;;;;;;;17.16;76.07;101642.34;5035629;28;20033;-80
2022/08/21 03:14:49;;;;;;;2.90;1.20;;;;;;;17.15;76.08;101632.69;5037397;28;20071;-80
2022/08/21 03:17:15;;;;;;;3.28;1.30;;;;;;;17.14;76.02;101629.19;5019253;28;20103;-80
2022/08/21 03:19:40;;;;;;;3.13;1.10;;;;;;;17.14;76.04;101637.13;5036815;28;20041;-80
2022/08/21 03:22:06;;;;;;;3.47;1.30;;;;;;;17.13;76.07;101635.41;5013471;28;20058;-80
2022/08/21 03:24:31;;;;;;;3.35;1.40;;;;;;;17.13;75.98;101638.06;4996594;28;20049;-80
2022/08/21 03:26:57;;;;;;;2.50;1.10;;;;;;;17.12;76.28;101633.72;5037079;28;20276;-80
2022/08/21 03:29:22;;;;;;;4.18;1.30;;;;;;;17.13;76.35;101631.94;5018424;28;20033;-80
2022/08/21 03:31:48;;;;;;;1.77;1.08;;;;;;;17.12;76.23;101622.25;5036520;28;20041;-80
2022/08/21 03:34:14;;;;;;;2.53;1.23;;;;;;;17.10;75.94;101619.72;5012968;28;20127;-80
2022/08/21 03:36:39;;;;;;;1.33;1.00;;;;;;;17.10;76.16;101618.84;5035123;28;20037;-80
2022/08/21 03:39:05;;;;;;;2.15;1.10;;;;;;;17.08;75.75;101619.81;5036756;28;20097;-80
2022/08/21 03:41:30;;;;;;;1.60;1.05;;;;;;;17.10;76.17;101622.38;5011061;28;20080;-80
2022/08/21 03:43:56;;;;;;;3.67;0.85;;;;;;;17.10;75.91;101613.56;5028669;28;20104;-80
2022/08/21 03:46:21;;;;;;;1.00;0.80;;;;;;;17.08;76.23;101619.81;5034858;28;20029;-80
2022/08/21 03:48:47;;;;;;;4.15;1.58;;;;;;;17.07;75.95;101622.53;4995345;28;20038;-80
2022/08/21 03:51:13;;;;;;;1.98;1.00;;;;;;;17.06;76.12;101619.03;5036388;28;20044;-80
2022/08/21 03:53:38;;;;;;;3.70;1.10;;;;;;;17.06;75.89;101616.41;5018491;28;20033;-80
2022/08/21 03:56:05;;;;;;;3.55;0.95;;;;;;;17.06;75.89;101615.53;5018658;28;20041;-80
2022/08/21 03:58:31;;;;;;;1.77;1.00;;;;;;;17.06;75.73;101621.69;5035623;28;20230;-80
2022/08/21 04:01:00;;;;;;;2.05;1.00;;;;;;;17.05;75.84;101614.69;5035901;28;20287;-80
2022/08/21 04:03:26;;;;;;;4.57;1.30;;;;;;;17.05;76.13;101616.47;5035008;28;20041;-80
2022/08/21 04:05:51;;;;;;;1.80;1.20;;;;;;;17.04;76.12;101620.91;5036539;28;20068;-80
2022/08/21 04:08:21;;;;;;;2.75;1.27;;;;;;;17.03;76.38;101621.84;5035948;28;20067;-80
2022/08/21 04:10:49;;;;;;;2.80;1.33;;;;;;;17.03;76.55;101624.50;5035730;28;20060;-80
2022/08/21 04:13:15;;;;;;;2.85;1.15;;;;;;;17.03;76.31;101627.16;5036105;28;20340;-80
2022/08/21 04:15:40;;;;;;;3.15;1.25;;;;;;;17.02;76.69;101622.78;5035960;28;20032;-80
2022/08/21 04:18:08;;;;;;;4.82;1.33;;;;;;;17.01;76.80;101621.09;4998004;28;20366;-80
2022/08/21 04:20:34;;;;;;;2.53;1.15;;;;;;;17.01;76.83;101625.53;5000863;28;20029;-80
2022/08/21 04:23:01;;;;;;;3.38;1.30;;;;;;;17.00;76.60;101629.94;5035998;28;20103;-80
2022/08/21 04:25:26;;;;;;;1.40;1.10;;;;;;;17.00;76.73;101629.09;5028253;28;20559;-80
2022/08/21 04:27:52;;;;;;;2.75;1.50;;;;;;;17.00;76.59;101634.41;5033244;28;20043;-80
2022/08/21 04:30:18;;;;;;;1.40;1.15;;;;;;;16.99;76.63;101630.91;5034413;28;20099;-80
2022/08/21 04:32:46;;;;;;;3.13;1.50;;;;;;;16.98;76.68;101639.78;5033607;28;20071;-80
2022/08/21 04:35:14;;;;;;;2.17;1.27;;;;;;;16.99;76.45;101637.97;5006760;28;20251;-80
2022/08/21 04:37:39;;;;;;;1.67;1.00;;;;;;;16.98;76.44;101638.94;5033505;28;20525;-80
2022/08/21 04:40:06;;;;;;;2.17;0.90;;;;;;;16.98;76.35;101644.22;5034118;28;20034;-80
2022/08/21 04:42:32;;;;;;;2.13;0.90;;;;;;;16.97;76.31;101645.16;5012620;28;20033;-80
2022/08/21 04:44:58;;;;;;;1.20;1.00;;;;;;;16.97;76.32;101642.50;5015497;28;20033;-80
2022/08/21 04:47:23;;;;;;;2.90;1.27;;;;;;;16.95;75.93;101639.94;5032758;28;20045;-80
2022/08/21 04:49:49;;;;;;;3.05;1.10;;;;;;;16.95;75.81;101653.16;5013696;28;20341;-80
2022/08/21 04:52:22;;;;;;;2.50;1.45;;;;;;;16.95;75.75;101653.16;5033851;28;20093;-80
2022/08/21 04:54:51;;;;;;;3.70;1.58;;;;;;;16.95;75.86;101650.50;5034234;28;20041;-80
2022/08/21 04:57:17;;;;;;;;;;;;;;;16.95;75.70;101661.09;5014786;28;20130;-80
2022/08/21 04:59:49;;;;;;;2.42;1.20;;;;;;;16.95;75.33;101660.25;5015169;28;19921;-80
2022/08/21 05:02:14;;;;;;;1.83;1.02;;;;;;;16.94;75.57;101664.69;5033043;28;20045;-80
2022/08/21 05:04:50;;;;;;;3.15;1.30;;;;;;;16.93;75.59;101664.78;5030082;28;20232;-80
2022/08/21 05:07:20;;;;;;;1.85;1.38;;;;;;;16.93;75.47;101670.91;5032024;28;20063;-80
2022/08/21 05:09:46;;;;;;;2.83;1.10;;;;;;;16.93;75.84;101662.13;5033160;28;20068;-80
2022/08/21 05:12:12;;;;;;;2.35;0.95;;;;;;;16.92;75.74;101663.06;5033035;28;20285;-80
2022/08/21 05:14:37;;;;;;;3.78;1.20;;;;;;;16.91;75.46;101659.56;5014099;28;20331;-80
2022/08/21 05:17:04;;;;;;;3.80;1.27;;;;;;;16.93;75.24;101659.47;5033488;28;20025;-80
2022/08/21 05:19:29;;;;;;;2.15;0.90;;;;;;;16.93;75.05;101656.84;5031778;28;20061;-80
2022/08/21 05:21:55;;;;;;;1.55;1.45;;;;;;;16.92;75.35;101653.34;5033029;28;20049;-80
2022/08/21 05:24:21;;;;;;;2.35;1.20;;;;;;;16.93;75.42;101659.47;5015215;28;20041;-80
2022/08/21 05:26:47;;;;;;;4.00;1.42;;;;;;;16.93;75.41;101665.63;5032950;28;20035;-80
2022/08/21 05:29:14;;;;;;;4.05;1.40;;;;;;;16.94;75.45;101661.22;4999009;28;20053;-80
2022/08/21 05:31:40;;;;;;;2.17;1.30;;;;;;;16.94;75.82;101661.22;5014982;28;20033;-80
2022/08/21 05:34:06;;;;;;;4.03;1.63;;;;;;;16.94;75.98;101659.41;5015339;28;20045;-80
2022/08/21 05:36:31;;;;;;;1.95;1.20;;;;;;;16.93;76.00;101659.47;5032564;28;20041;-80
2022/08/21 05:38:57;;;;;;;3.45;1.42;;;;;;;16.93;75.25;101667.41;4998995;28;20052;-80
2022/08/21 05:41:23;;;;;;;5.05;1.52;;;;;;;16.93;74.91;101662.13;5014474;28;20052;-80
2022/08/21 05:43:49;;;;;;;4.30;1.60;;;;;;;16.93;74.75;101675.34;5015249;28;20072;-80
2022/08/21 05:46:15;;;;;;;4.03;1.27;;;;;;;16.93;74.14;101662.13;5014673;28;20037;-80
2022/08/21 05:48:40;;;;;;;2.45;1.45;;;;;;;16.94;74.69;101663.84;5032269;28;20040;-80
2022/08/21 05:51:10;;;;;;;2.72;1.73;;;;;;;16.94;75.40;101662.06;5014641;28;20033;-80
2022/08/21 05:53:37;;;;;;;4.38;1.67;;;;;;;16.96;75.55;101661.97;5019268;28;20027;-80
2022/08/21 05:56:03;;;;;;;3.28;1.58;;;;;;;16.96;75.84;101660.19;5032685;28;20243;-80
2022/08/21 05:58:30;;;;;;;1.58;1.38;;;;;;;16.95;76.02;101661.09;4999349;28;20274;-80
2022/08/21 06:00:56;;;;;;;3.03;1.73;;;;;;;16.97;75.64;101666.31;5035923;28;20037;-80
2022/08/21 06:03:25;;;;;;;2.33;1.40;;;;;;;16.96;75.96;101665.47;5033367;28;20051;-80
2022/08/21 06:05:52;;;;;;;2.65;1.50;;;;;;;16.96;76.07;101665.47;5014163;28;20021;-80
2022/08/21 06:08:19;;;;;;;2.33;1.67;;;;;;;16.98;76.06;101665.38;5032191;28;20033;-80
2022/08/21 06:10:45;;;;;;;5.43;1.90;;;;;;;16.97;75.50;101669.84;5029326;28;20307;-80
2022/08/21 06:13:11;;;;;;;4.43;1.67;;;;;;;16.98;75.66;101671.53;5014651;28;20037;-80
2022/08/21 06:15:37;;;;;;;3.72;1.63;;;;;;;16.98;75.79;101671.53;5030379;28;20040;-80
2022/08/21 06:18:02;;;;;;;2.53;1.67;;;;;;;17.00;75.64;101674.94;5032042;28;20037;-80
2022/08/21 06:20:28;;;;;;;2.80;1.80;;;;;;;16.99;74.92;101656.50;5013942;28;20041;-80
2022/08/21 06:22:54;;;;;;;2.80;1.70;;;;;;;16.99;75.22;101660.00;5013725;28;20037;-80
2022/08/21 06:25:19;;;;;;;4.18;2.22;;;;;;;17.01;75.03;101667.88;5032107;28;20029;-80
2022/08/21 06:27:46;;;;;;;4.03;1.73;;;;;;;17.00;74.96;101659.06;5013769;28;20240;-80
2022/08/21 06:30:11;;;;;;;3.17;1.77;;;;;;;17.02;75.28;101656.34;5031760;28;20056;-80
2022/08/21 06:32:37;;;;;;;2.70;1.40;;;;;;;17.02;75.42;101661.63;5010084;28;20297;-80
2022/08/21 06:35:04;;;;;;;4.85;1.90;;;;;;;17.01;75.68;101652.84;5031724;28;20104;-80
2022/08/21 06:37:29;;;;;;;4.18;2.03;;;;;;;17.01;75.97;101652.84;5031026;28;20049;-80
2022/08/21 06:39:55;;;;;;;3.60;1.80;;;;;;;17.01;75.76;101658.13;5031686;28;20032;-80
2022/08/21 06:42:20;;;;;;;2.35;1.88;;;;;;;17.04;75.55;101651.81;5015366;28;20042;-80
2022/08/21 06:44:46;;;;;;;3.60;1.73;;;;;;;17.03;75.52;101650.97;5051011;28;20051;-80
2022/08/21 06:47:11;;;;;;;3.17;1.85;;;;;;;17.06;75.33;101647.28;5018708;28;20057;-80
2022/08/21 06:49:37;;;;;;;4.15;1.95;;;;;;;17.06;75.74;101653.44;5035089;28;20041;-80
2022/08/21 06:52:02;;;;;;;5.38;1.90;;;;;;;17.07;76.20;101649.00;5035569;28;20451;-80
2022/08/21 06:54:28;;;;;;;5.40;1.85;;;;;;;17.09;76.24;101652.41;5027149;28;20052;-80
2022/08/21 06:56:53;;;;;;;2.85;1.90;;;;;;;17.11;76.57;101649.69;5018093;28;20278;-80
2022/08/21 06:59:19;;;;;;;3.42;2.00;;;;;;;17.12;76.21;101648.72;5035493;28;20048;-80
2022/08/21 07:01:44;;;;;;;4.60;1.80;;;;;;;17.12;75.38;101659.31;5034134;28;20348;-80
2022/08/21 07:04:10;;;;;;;2.75;1.77;;;;;;;17.12;75.37;101657.56;5035438;28;20037;-80
2022/08/21 07:06:35;;;;;;;4.05;2.35;;;;;;;17.14;76.03;101652.19;5032995;28;20316;-80
2022/08/21 07:09:02;;;;;;;4.07;2.20;;;;;;;17.15;76.19;101656.50;5035898;28;20344;-80
2022/08/21 07:11:27;;;;;;;3.40;2.13;;;;;;;17.15;75.89;101654.72;5034968;28;20546;-80
2022/08/21 07:13:54;;;;;;;3.65;2.28;;;;;;;17.19;76.44;101663.34;5014105;28;20037;-80
2022/08/21 07:16:21;;;;;;;3.55;1.90;;;;;;;17.18;76.01;101659.00;5035171;28;20534;-80
2022/08/21 07:18:47;;;;;;;4.28;2.28;;;;;;;17.20;75.16;101662.41;5017255;28;20033;-80
2022/08/21 07:21:12;;;;;;;8.18;2.22;;;;;;;17.21;75.27;101670.28;5034737;28;20111;-80
2022/08/21 07:23:41;;;;;;;4.22;2.20;;;;;;;17.23;75.83;101663.09;5011746;28;20427;-80
2022/08/21 07:26:07;;;;;;;3.67;1.75;;;;;;;17.27;76.46;101669.06;5034666;28;20040;-80
2022/08/21 07:28:34;;;;;;;4.90;2.03;;;;;;;17.28;76.38;101660.19;5034969;28;20049;-80
2022/08/21 07:31:01;;;;;;;5.38;2.30;;;;;;;17.31;76.70;101656.53;5034736;28;20033;-80
2022/08/21 07:33:29;;;;;;;5.00;2.67;;;;;;;17.33;77.11;101658.13;5034685;28;20033;-80
2022/08/21 07:35:54;;;;;;;5.53;2.83;;;;;;;17.35;77.22;101658.88;5033951;28;20041;-80
2022/08/21 07:38:20;;;;;;;4.15;2.15;;;;;;;17.38;77.80;101656.09;5001085;28;20114;-80
2022/08/21 07:40:48;;;;;;;6.43;2.60;;;;;;;17.40;77.43;101659.50;5034115;28;20044;-80
2022/08/21 07:43:16;;;;;;;4.32;2.60;;;;;;;17.42;77.37;101662.91;5035296;28;20318;-80
2022/08/21 07:45:42;;;;;;;12.03;3.50;;;;;;;17.48;80.52;101661.69;5031513;28;20033;-80
2022/08/21 07:48:07;;;;;;;8.80;3.35;;;;;;;17.51;79.66;101645.66;5034879;28;20083;-80
2022/08/21 07:50:33;;;;;;;8.75;3.58;;;;;;;17.55;79.74;101657.75;5017083;28;20061;-81
2022/08/21 07:52:58;;;;;;;6.45;3.05;;;;;;;17.58;79.34;101654.09;5036055;28;20040;-81
2022/08/21 07:55:24;;;;;;;4.85;3.05;;;;;;;17.60;78.95;101652.22;5031971;28;20307;-81
2022/08/21 07:57:50;;;;;;;8.68;3.05;;;;;;;17.64;78.64;101653.75;5035211;28;20035;-81
2022/08/21 08:00:19;;;;;;;12.18;3.80;;;;;;;17.69;79.05;101656.13;5018212;28;20229;-81
2022/08/21 08:02:49;;;;;;;9.07;3.35;;;;;;;17.74;79.67;101654.94;5027535;28;20071;-81
2022/08/21 08:05:14;;;;;;;9.65;3.20;;;;;;;17.79;79.94;101670.53;5013291;28;20256;-81
2022/08/21 08:07:40;;;;;;;8.35;2.83;;;;;;;17.83;80.15;101666.78;5034584;28;20060;-81
2022/08/21 08:10:07;;;;;;;12.77;3.83;;;;;;;17.87;80.64;101665.69;5029406;28;20215;-81
2022/08/21 08:12:34;;;;;;;12.18;3.58;;;;;;;17.90;80.22;101654.94;5032789;28;20041;-81
2022/08/21 08:15:00;;;;;;;8.10;2.85;;;;;;;17.93;79.44;101664.47;5033959;28;20346;-81
2022/08/21 08:17:27;;;;;;;6.57;2.47;;;;;;;17.94;78.27;101656.44;5037904;28;20099;-81
2022/08/21 08:19:53;;;;;;;9.60;2.88;;;;;;;17.99;79.77;101651.72;5043770;28;20033;-81
2022/08/21 08:22:23;;;;;;;7.40;2.65;;;;;;;18.05;79.01;101655.81;5043718;28;20064;-81
2022/08/21 08:24:49;;;;;;;5.50;2.47;;;;;;;18.12;80.91;101643.91;5038773;28;20057;-81
2022/08/21 08:27:15;;;;;;;6.78;2.15;;;;;;;18.15;79.30;101645.50;5021600;28;20343;-81
2022/08/21 08:29:41;;;;;;;6.82;2.03;;;;;;;18.18;78.57;101645.34;5025315;28;20232;-81
2022/08/21 08:32:07;;;;;;;8.00;2.40;;;;;;;18.18;78.11;101648.81;5023574;28;20023;-81
2022/08/21 08:34:38;;;;;;;4.70;2.17;;;;;;;18.19;78.09;101655.84;5043120;28;20044;-81
2022/08/21 08:37:07;;;;;;;4.80;2.00;;;;;;;18.20;78.22;101648.75;5023760;28;20041;-81
2022/08/21 08:39:33;;;;;;;6.68;2.33;;;;;;;18.22;78.08;101650.34;5033694;28;20577;-81
2022/08/21 08:42:09;;;;;;;6.35;1.90;;;;;;;18.23;78.12;101649.41;5033741;28;20275;-81
2022/08/21 08:44:36;;;;;;;5.88;2.00;;;;;;;18.25;78.30;101643.16;5033369;28;20041;-81
2022/08/21 08:47:03;;;;;;;6.13;2.40;;;;;;;18.27;78.66;101635.97;5033499;28;20034;-81
2022/08/21 08:49:29;;;;;;;6.00;1.75;;;;;;;18.29;78.23;101642.88;5033094;28;20347;-81
2022/08/21 08:52:18;;;;;;;4.57;2.13;;;;;;;18.33;79.44;101640.91;5033457;28;20041;-81
2022/08/21 08:54:55;;;;;;;4.70;2.33;;;;;;;18.36;79.47;101635.41;5027278;28;20486;-81
2022/08/21 08:57:23;;;;;;;6.97;2.25;;;;;;;18.40;79.17;101640.41;5033031;28;20053;-81
2022/08/21 08:59:52;;;;;;;7.53;2.45;;;;;;;18.45;79.10;101639.31;5030435;28;20043;-81
2022/08/21 09:02:18;;;;;;;5.97;2.45;;;;;;;18.49;79.70;101639.00;5033261;28;20037;-81
2022/08/21 09:04:47;;;;;;;9.30;2.65;;;;;;;18.55;80.50;101632.47;5032626;28;20371;-81
2022/08/21 09:07:19;;;;;;;5.55;2.33;;;;;;;18.60;79.93;101631.25;5027673;28;20339;-81
2022/08/21 09:10:03;;;;;;;3.85;2.00;;;;;;;18.67;79.41;101638.84;5032369;28;20193;-81
2022/08/21 09:12:39;;;;;;;10.07;2.47;;;;;;;18.73;78.87;101636.63;5032685;28;20021;-81
2022/08/21 09:15:44;;;;;;;8.55;1.98;;;;;;;18.79;78.35;101636.25;5025224;28;20051;-81
2022/08/21 09:18:18;;;;;;;8.30;2.42;;;;;;;18.86;78.89;101631.44;5000976;28;20108;-81
2022/08/21 09:20:57;;;;;;;6.97;1.98;;;;;;;18.92;78.55;101635.53;5003277;28;20037;-81
2022/08/21 09:23:34;;;;;;;;;;;;;;;18.99;77.99;101653.63;5008228;28;20025;-81
2022/08/21 09:26:22;;;;;;;8.20;2.30;;;;;;;19.06;77.23;101646.09;5032854;28;20108;-81
2022/08/21 09:28:57;;;;;;;2.92;1.42;;;;;;;19.10;77.51;101644.09;5032948;28;20100;-81
2022/08/21 09:31:32;;;;;;;4.05;1.98;;;;;;;19.15;77.14;101647.31;5024665;28;20025;-81
2022/08/21 09:34:04;;;;;;;4.50;2.33;;;;;;;19.17;77.01;101640.97;5028971;28;20105;-81
2022/08/21 09:36:42;;;;;;;6.45;2.30;;;;;;;19.18;76.59;101639.16;5032329;28;20037;-81
2022/08/21 09:39:10;;;;;;;7.50;2.55;;;;;;;19.18;76.34;101644.47;5032376;28;20052;-81
2022/08/21 09:41:37;;;;;;;5.63;1.90;;;;;;;19.18;76.05;101649.78;5027729;28;20406;-81
2022/08/21 09:44:04;;;;;;;6.07;1.75;;;;;;;19.20;75.82;101647.88;5014808;28;20383;-81
2022/08/21 09:46:30;;;;;;;8.82;1.60;;;;;;;19.24;75.22;101653.84;5031573;28;20052;-81
2022/08/21 09:48:59;;;;;;;5.63;1.60;;;;;;;19.27;74.89;101640.38;5032083;28;20049;-81
2022/08/21 09:51:27;;;;;;;4.40;2.28;;;;;;;19.32;74.98;101646.25;5031902;28;20025;-81
2022/08/21 09:54:05;;;;;;;6.05;1.52;;;;;;;19.36;74.88;101651.25;5032208;28;20036;-81
2022/08/21 09:59:31;;;;;;;7.72;2.10;;;;;;;19.34;75.13;101647.84;5028224;28;20358;-81
2022/08/21 10:02:00;;;;;;;8.60;2.20;;;;;;;19.33;75.39;101651.44;5031771;28;20040;-81
2022/08/21 10:04:33;;;;;;;;;;;;;;;19.31;75.41;101640.06;5032273;28;20279;-81
2022/08/21 10:07:07;;;;;;;8.70;2.42;;;;;;;19.31;75.59;101639.22;5032123;28;19917;-81
2022/08/21 10:09:33;;;;;;;4.90;1.35;;;;;;;19.29;75.24;101639.31;5028685;28;20045;-81
2022/08/21 10:12:11;;;;;;;27.13;2.22;;;;;;;19.29;75.61;101643.78;5032708;28;20029;-81
2022/08/21 10:14:54;;;;;;;7.32;1.90;;;;;;;19.28;75.26;101642.94;5032893;28;20040;-81
2022/08/21 10:17:37;;;;;;;5.13;1.35;;;;;;;19.28;75.05;101632.31;5025331;28;20029;-80
2022/08/21 10:20:14;;;;;;;6.22;1.25;;;;;;;19.27;75.10;101638.56;5029231;28;20355;-80
2022/08/21 10:22:42;;;;;;;2.95;1.10;;;;;;;19.27;74.95;101643.88;5032375;28;20033;-80
2022/08/21 10:25:29;;;;;;;5.97;1.75;;;;;;;19.27;75.35;101638.56;5033355;28;20067;-81
2022/08/21 10:28:10;;;;;;;3.42;1.35;;;;;;;19.26;75.28;101644.81;5033313;28;20324;-81
2022/08/21 10:31:03;;;;;;;6.22;1.52;;;;;;;19.28;74.73;101639.41;5016113;28;20128;-81
2022/08/21 10:33:37;;;;;;;8.93;1.65;;;;;;;19.30;74.80;101638.38;5034012;28;20080;-81
2022/08/21 10:36:24;;;;;;;4.00;1.58;;;;;;;19.33;74.86;101626.69;5030816;28;20083;-81
2022/08/21 10:39:05;;;;;;;4.13;1.40;;;;;;;19.41;74.83;101631.50;5034079;28;20029;-81
2022/08/21 10:41:53;;;;;;;3.03;1.40;;;;;;;19.45;74.69;101625.06;5028314;28;20065;-80
2022/08/21 10:44:34;;;;;;;8.25;1.60;;;;;;;19.48;73.02;101638.13;5030902;28;20071;-80
2022/08/21 10:47:03;;;;;;;3.88;1.20;;;;;;;19.51;73.56;101637.91;5030227;28;20332;-80
2022/08/21 10:49:39;;;;;;;3.03;1.20;;;;;;;19.51;73.75;101637.91;5037441;28;20055;-80
2022/08/21 10:52:35;;;;;;;9.70;1.20;;;;;;;19.52;73.45;101634.31;5033961;28;20202;-80
2022/08/21 10:55:09;;;;;;;4.53;1.58;;;;;;;19.52;73.73;101629.00;5021651;28;20037;-80
2022/08/21 10:57:38;;;;;;;8.85;1.73;;;;;;;19.52;73.81;101634.31;5041932;28;20350;-80
2022/08/21 11:00:11;;;;;;;3.58;1.10;;;;;;;19.52;73.59;101639.63;5024123;28;20240;-80
2022/08/21 11:02:44;;;;;;;4.00;1.30;;;;;;;19.51;73.91;101633.44;5031256;28;20041;-80
2022/08/21 11:05:13;;;;;;;4.22;1.30;;;;;;;19.51;73.67;101633.44;5015570;28;20321;-80
2022/08/21 11:07:57;;;;;;;6.75;1.40;;;;;;;19.53;73.90;101638.66;5032930;28;20068;-80
2022/08/21 11:10:23;;;;;;;4.32;1.45;;;;;;;19.56;73.59;101646.44;5033231;28;20489;-80
2022/08/21 11:12:54;;;;;;;2.75;1.27;;;;;;;19.58;73.86;101649.84;5013804;28;20306;-80
2022/08/21 11:15:34;;;;;;;4.75;1.23;;;;;;;19.62;73.49;101653.16;5017454;28;20037;-81
2022/08/21 11:18:25;;;;;;;2.95;1.00;;;;;;;19.64;73.10;101651.25;5019343;28;20021;-80
2022/08/21 11:21:02;;;;;;;3.78;1.30;;;;;;;19.64;73.20;101651.25;5031550;28;20136;-80
2022/08/21 11:23:42;;;;;;;3.60;1.20;;;;;;;19.62;72.71;101645.19;5030778;28;20297;-80
2022/08/21 11:26:17;;;;;;;3.95;1.00;;;;;;;19.61;72.92;101648.78;5031862;28;20033;-80
2022/08/21 11:29:04;;;;;;;3.60;1.02;;;;;;;19.61;73.23;101656.75;5033393;28;20232;-80
2022/08/21 11:31:38;;;;;;;1.77;1.00;;;;;;;19.60;73.20;101658.56;5030728;28;20221;-80
2022/08/21 11:34:22;;;;;;;6.40;1.52;;;;;;;19.61;73.07;101656.75;5036165;28;20037;-80
2022/08/21 11:37:42;;;;;;;3.92;1.27;;;;;;;19.60;73.07;101653.25;5019444;28;20111;-80